Taiyoumaru No.8 — JD2246 — position and weather

sailwx.info

Track history (hours):
 
Tides and Currents Weather Stations Pressure Air Temp Water Temp Dewpoint Dewpoint Depression Visibility Wind Speed Wind Dir Waves Ship Positions

Taiyoumaru No.8

Last reported at 2017-Dec-10 11:18 UTC. Time now 2017-Dec-12 02:49 UTC.
Position N 34°60' E 140°08'.

Length 70 m; draft 4.3 m.

Type: Cargo ship. MMSI: 431402047.

Date/timePositionNaut miles runAvg speedWind from/ knotsBaromVisibWave heightAir tempDewpointWater temp
2017-Dec-10 11:18N 34°60' E 140°08'511.9
2017-Dec-10 10:51N 34°57' E 140°02'3611.2
2017-Dec-10 07:39N 34°49' E 139°19'412.3
2017-Dec-10 07:20N 34°47' E 139°16'512.7
2017-Dec-10 06:57N 34°44' E 139°11'612.2
2017-Dec-10 06:29N 34°40' E 139°06'610.6
2017-Dec-10 05:57N 34°37' E 138°60'511.4
2017-Dec-10 05:28N 34°35' E 138°54'511.0
2017-Dec-10 05:00N 34°35' E 138°47'610.8
2017-Dec-10 04:29N 34°34' E 138°41'511.2
2017-Dec-10 03:59N 34°34' E 138°34'511.2
2017-Dec-10 03:30N 34°33' E 138°27'710.9
2017-Dec-10 02:49N 34°33' E 138°18'5210.6
2017-Dec-09 21:53N 34°30' E 137°15'115 8.1
2017-Dec-09 07:38N 33°48' E 135°05'511.1
2017-Dec-09 07:08N 33°53' E 135°01'211.2
2017-Dec-09 06:58N 33°54' E 134°59'510.9
2017-Dec-09 06:30N 33°58' E 134°55'711.1
2017-Dec-09 05:53N 34°03' E 134°50'411.3
2017-Dec-09 05:30N 34°06' E 134°47'710.9
2017-Dec-09 04:49N 34°12' E 134°41'410.2
2017-Dec-09 04:28N 34°15' E 134°38'4 9.7
2017-Dec-09 04:00N 34°16' E 134°33'0 0.9
2017-Dec-09 03:30N 34°16' E 134°33'0 0.3
2017-Dec-09 02:58N 34°16' E 134°33'0 0.2
2017-Dec-09 02:27N 34°16' E 134°33'2 4.2
2017-Dec-09 02:00N 34°17' E 134°31'90 9.4
2017-Dec-08 16:26N 34°04' E 132°44'511.0
2017-Dec-08 16:00N 34°02' E 132°39'711.2
2017-Dec-08 15:20N 33°57' E 132°32'1111.1
2017-Dec-08 14:20N 33°50' E 132°21'411.0
2017-Dec-08 13:59N 33°50' E 132°17'1010.7
2017-Dec-08 13:01N 33°46' E 132°05'010.4
2017-Dec-08 12:58N 33°46' E 132°04'910.2
2017-Dec-08 12:08N 33°46' E 131°54'210.1
2017-Dec-08 11:58N 33°46' E 131°52'510.3
2017-Dec-08 11:30N 33°47' E 131°47'510.3
2017-Dec-08 11:00N 33°48' E 131°40'510.3
2017-Dec-08 10:30N 33°49' E 131°34'510.3
2017-Dec-08 10:00N 33°50' E 131°28'510.4
2017-Dec-08 09:30N 33°51' E 131°22'510.6
2017-Dec-08 09:00N 33°52' E 131°16'510.9
2017-Dec-08 08:30N 33°54' E 131°10'510.8
2017-Dec-08 08:00N 33°57' E 131°04'5 9.6
2017-Dec-08 07:30N 33°58' E 130°59'5 9.1
2017-Dec-08 07:00N 33°54' E 130°55'2 4.7
2017-Dec-08 06:30N 33°56' E 130°53'0 0.0
2017-Dec-08 06:00N 33°56' E 130°53'0 0.5
2017-Dec-08 05:30N 33°56' E 130°54'0 0.1
2017-Dec-08 05:00N 33°56' E 130°54'0 0.0
2017-Dec-08 04:30N 33°56' E 130°54'0 0.0
2017-Dec-08 04:00N 33°56' E 130°54'0 0.0
2017-Dec-08 03:30N 33°56' E 130°54'0 0.0
2017-Dec-08 03:00N 33°56' E 130°54'0 0.0
2017-Dec-08 02:30N 33°56' E 130°54'0 0.0
2017-Dec-08 02:00N 33°56' E 130°54'0 0.0
2017-Dec-08 01:30N 33°56' E 130°54'0 0.0
2017-Dec-08 01:00N 33°56' E 130°54'0 0.0
2017-Dec-08 00:30N 33°56' E 130°54'0 0.0
2017-Dec-08 00:00N 33°56' E 130°54'0 0.0
2017-Dec-07 23:30N 33°56' E 130°54'0 0.0
2017-Dec-07 23:00N 33°56' E 130°54'0 0.1
2017-Dec-07 22:30N 33°56' E 130°54'1 2.2
2017-Dec-07 22:00N 33°55' E 130°54'2 3.2
2017-Dec-07 21:30N 33°54' E 130°52'0 0.0
2017-Dec-07 21:00N 33°54' E 130°52'0 0.0
2017-Dec-07 20:30N 33°54' E 130°52'0 0.1
2017-Dec-07 20:00N 33°54' E 130°52'0 0.1
2017-Dec-07 19:30N 33°54' E 130°52'0 0.0
2017-Dec-07 19:00N 33°54' E 130°52'0 0.1
2017-Dec-07 18:30N 33°54' E 130°52'0 0.1
2017-Dec-07 18:00N 33°54' E 130°52'0 0.1
2017-Dec-07 17:30N 33°54' E 130°52'0 0.0
2017-Dec-07 17:00N 33°54' E 130°52'0 0.1
2017-Dec-07 16:30N 33°54' E 130°52'0 0.0
2017-Dec-07 16:00N 33°54' E 130°52'0 0.0
2017-Dec-07 15:30N 33°54' E 130°52'0 0.0
2017-Dec-07 15:00N 33°54' E 130°52'0 0.0
2017-Dec-07 14:30N 33°54' E 130°52'0 0.1
2017-Dec-07 14:00N 33°54' E 130°52'0 0.1
2017-Dec-07 13:30N 33°54' E 130°52'0 0.1
2017-Dec-07 13:00N 33°54' E 130°52'0 0.0
2017-Dec-07 12:30N 33°54' E 130°52'0 0.1
2017-Dec-07 12:00N 33°54' E 130°52'0 0.0
2017-Dec-07 11:30N 33°54' E 130°52'0 0.0
2017-Dec-07 11:00N 33°54' E 130°52'0 0.0
2017-Dec-07 10:30N 33°54' E 130°52'0 0.0
2017-Dec-07 10:00N 33°54' E 130°52'0 0.0
2017-Dec-07 09:30N 33°54' E 130°52'0 0.0
2017-Dec-07 09:00N 33°54' E 130°52'0 0.0
2017-Dec-07 08:30N 33°54' E 130°52'0 0.1
2017-Dec-07 08:00N 33°54' E 130°52'0 0.1
2017-Dec-07 07:30N 33°54' E 130°52'0 0.0
2017-Dec-07 07:00N 33°54' E 130°52'0 0.0
2017-Dec-07 06:30N 33°54' E 130°52'0 0.0
2017-Dec-07 06:00N 33°54' E 130°52'0 0.0
2017-Dec-07 05:30N 33°54' E 130°52'0 0.0
2017-Dec-07 05:00N 33°54' E 130°52'0 0.1
2017-Dec-07 04:30N 33°54' E 130°52'0 0.1
2017-Dec-07 04:00N 33°54' E 130°52'0 0.1
2017-Dec-07 03:30N 33°54' E 130°52'0 0.1
2017-Dec-07 03:00N 33°54' E 130°52'0 0.0
2017-Dec-07 02:30N 33°54' E 130°52'0 0.0
2017-Dec-07 02:00N 33°54' E 130°52'0 0.0
2017-Dec-07 01:30N 33°54' E 130°52'0 0.1
2017-Dec-07 01:00N 33°54' E 130°52'0 0.0
2017-Dec-07 00:30N 33°54' E 130°52'0 0.1
2017-Dec-07 00:00N 33°54' E 130°52'0 0.0
2017-Dec-06 23:30N 33°54' E 130°52'0 0.1
2017-Dec-06 23:00N 33°54' E 130°52'0 0.0
2017-Dec-06 22:30N 33°54' E 130°52'0 0.0
2017-Dec-06 22:00N 33°54' E 130°52'0 0.1
2017-Dec-06 21:30N 33°54' E 130°52'0 0.0
2017-Dec-06 21:00N 33°54' E 130°52'  
2017-Dec-04 00:50N 34°34' E 138°34'610.1
2017-Dec-04 00:11N 34°34' E 138°42'610.5
2017-Dec-03 23:39N 34°35' E 138°49'210.7
2017-Dec-03 23:27N 34°35' E 138°52'4 9.9
2017-Dec-03 23:00N 34°36' E 138°57'511.0
2017-Dec-03 22:30N 34°39' E 139°02'810.2
2017-Dec-03 21:41N 34°44' E 139°10'2 8.9
2017-Dec-03 21:30N 34°45' E 139°12'41 9.8
2017-Dec-03 17:18N 34°55' E 140°01'510.5
2017-Dec-03 16:48N 34°58' E 140°06'396 9.8
2017-Dec-02 00:19N 41°29' E 141°30'511.5
2017-Dec-01 23:54N 41°33' E 141°28'511.1
2017-Dec-01 23:30N 41°37' E 141°26'510.3
2017-Dec-01 22:59N 41°42' E 141°23'  
Track history (hours):
 
Tides and Currents Weather Stations Pressure Air Temp Water Temp Dewpoint Dewpoint Depression Visibility Wind Speed Wind Dir Waves Ship Positions

Taiyoumaru No.8

Last reported at 2017-Dec-10 11:18 UTC. Time now 2017-Dec-12 02:49 UTC.
Position N 34°60' E 140°08'.

Length 70 m; draft 4.3 m.

Type: Cargo ship. MMSI: 431402047.

Date/timePositionNaut miles runAvg speedWind from/ knotsBaromVisibWave heightAir tempDewpointWater temp
2017-Dec-10 11:18N 34°60' E 140°08'511.9
2017-Dec-10 10:51N 34°57' E 140°02'3611.2
2017-Dec-10 07:39N 34°49' E 139°19'412.3
2017-Dec-10 07:20N 34°47' E 139°16'512.7
2017-Dec-10 06:57N 34°44' E 139°11'612.2
2017-Dec-10 06:29N 34°40' E 139°06'610.6
2017-Dec-10 05:57N 34°37' E 138°60'511.4
2017-Dec-10 05:28N 34°35' E 138°54'511.0
2017-Dec-10 05:00N 34°35' E 138°47'610.8
2017-Dec-10 04:29N 34°34' E 138°41'511.2
2017-Dec-10 03:59N 34°34' E 138°34'511.2
2017-Dec-10 03:30N 34°33' E 138°27'710.9
2017-Dec-10 02:49N 34°33' E 138°18'5210.6
2017-Dec-09 21:53N 34°30' E 137°15'115 8.1
2017-Dec-09 07:38N 33°48' E 135°05'511.1
2017-Dec-09 07:08N 33°53' E 135°01'211.2
2017-Dec-09 06:58N 33°54' E 134°59'510.9
2017-Dec-09 06:30N 33°58' E 134°55'711.1
2017-Dec-09 05:53N 34°03' E 134°50'411.3
2017-Dec-09 05:30N 34°06' E 134°47'710.9
2017-Dec-09 04:49N 34°12' E 134°41'410.2
2017-Dec-09 04:28N 34°15' E 134°38'4 9.7
2017-Dec-09 04:00N 34°16' E 134°33'0 0.9
2017-Dec-09 03:30N 34°16' E 134°33'0 0.3
2017-Dec-09 02:58N 34°16' E 134°33'0 0.2
2017-Dec-09 02:27N 34°16' E 134°33'2 4.2
2017-Dec-09 02:00N 34°17' E 134°31'90 9.4
2017-Dec-08 16:26N 34°04' E 132°44'511.0
2017-Dec-08 16:00N 34°02' E 132°39'711.2
2017-Dec-08 15:20N 33°57' E 132°32'1111.1
2017-Dec-08 14:20N 33°50' E 132°21'411.0
2017-Dec-08 13:59N 33°50' E 132°17'1010.7
2017-Dec-08 13:01N 33°46' E 132°05'010.4
2017-Dec-08 12:58N 33°46' E 132°04'910.2
2017-Dec-08 12:08N 33°46' E 131°54'210.1
2017-Dec-08 11:58N 33°46' E 131°52'510.3
2017-Dec-08 11:30N 33°47' E 131°47'510.3
2017-Dec-08 11:00N 33°48' E 131°40'510.3
2017-Dec-08 10:30N 33°49' E 131°34'510.3
2017-Dec-08 10:00N 33°50' E 131°28'510.4
2017-Dec-08 09:30N 33°51' E 131°22'510.6
2017-Dec-08 09:00N 33°52' E 131°16'510.9
2017-Dec-08 08:30N 33°54' E 131°10'510.8
2017-Dec-08 08:00N 33°57' E 131°04'5 9.6
2017-Dec-08 07:30N 33°58' E 130°59'5 9.1
2017-Dec-08 07:00N 33°54' E 130°55'2 4.7
2017-Dec-08 06:30N 33°56' E 130°53'0 0.0
2017-Dec-08 06:00N 33°56' E 130°53'0 0.5
2017-Dec-08 05:30N 33°56' E 130°54'0 0.1
2017-Dec-08 05:00N 33°56' E 130°54'0 0.0
2017-Dec-08 04:30N 33°56' E 130°54'0 0.0
2017-Dec-08 04:00N 33°56' E 130°54'0 0.0
2017-Dec-08 03:30N 33°56' E 130°54'0 0.0
2017-Dec-08 03:00N 33°56' E 130°54'0 0.0
2017-Dec-08 02:30N 33°56' E 130°54'0 0.0
2017-Dec-08 02:00N 33°56' E 130°54'0 0.0
2017-Dec-08 01:30N 33°56' E 130°54'0 0.0
2017-Dec-08 01:00N 33°56' E 130°54'0 0.0
2017-Dec-08 00:30N 33°56' E 130°54'0 0.0
2017-Dec-08 00:00N 33°56' E 130°54'0 0.0
2017-Dec-07 23:30N 33°56' E 130°54'0 0.0
2017-Dec-07 23:00N 33°56' E 130°54'0 0.1
2017-Dec-07 22:30N 33°56' E 130°54'1 2.2
2017-Dec-07 22:00N 33°55' E 130°54'2 3.2
2017-Dec-07 21:30N 33°54' E 130°52'0 0.0
2017-Dec-07 21:00N 33°54' E 130°52'0 0.0
2017-Dec-07 20:30N 33°54' E 130°52'0 0.1
2017-Dec-07 20:00N 33°54' E 130°52'0 0.1
2017-Dec-07 19:30N 33°54' E 130°52'0 0.0
2017-Dec-07 19:00N 33°54' E 130°52'0 0.1
2017-Dec-07 18:30N 33°54' E 130°52'0 0.1
2017-Dec-07 18:00N 33°54' E 130°52'0 0.1
2017-Dec-07 17:30N 33°54' E 130°52'0 0.0
2017-Dec-07 17:00N 33°54' E 130°52'0 0.1
2017-Dec-07 16:30N 33°54' E 130°52'0 0.0
2017-Dec-07 16:00N 33°54' E 130°52'0 0.0
2017-Dec-07 15:30N 33°54' E 130°52'0 0.0
2017-Dec-07 15:00N 33°54' E 130°52'0 0.0
2017-Dec-07 14:30N 33°54' E 130°52'0 0.1
2017-Dec-07 14:00N 33°54' E 130°52'0 0.1
2017-Dec-07 13:30N 33°54' E 130°52'0 0.1
2017-Dec-07 13:00N 33°54' E 130°52'0 0.0
2017-Dec-07 12:30N 33°54' E 130°52'0 0.1
2017-Dec-07 12:00N 33°54' E 130°52'0 0.0
2017-Dec-07 11:30N 33°54' E 130°52'0 0.0
2017-Dec-07 11:00N 33°54' E 130°52'0 0.0
2017-Dec-07 10:30N 33°54' E 130°52'0 0.0
2017-Dec-07 10:00N 33°54' E 130°52'0 0.0
2017-Dec-07 09:30N 33°54' E 130°52'0 0.0
2017-Dec-07 09:00N 33°54' E 130°52'0 0.0
2017-Dec-07 08:30N 33°54' E 130°52'0 0.1
2017-Dec-07 08:00N 33°54' E 130°52'0 0.1
2017-Dec-07 07:30N 33°54' E 130°52'0 0.0
2017-Dec-07 07:00N 33°54' E 130°52'0 0.0
2017-Dec-07 06:30N 33°54' E 130°52'0 0.0
2017-Dec-07 06:00N 33°54' E 130°52'0 0.0
2017-Dec-07 05:30N 33°54' E 130°52'0 0.0
2017-Dec-07 05:00N 33°54' E 130°52'0 0.1
2017-Dec-07 04:30N 33°54' E 130°52'0 0.1
2017-Dec-07 04:00N 33°54' E 130°52'0 0.1
2017-Dec-07 03:30N 33°54' E 130°52'0 0.1
2017-Dec-07 03:00N 33°54' E 130°52'0 0.0
2017-Dec-07 02:30N 33°54' E 130°52'0 0.0
2017-Dec-07 02:00N 33°54' E 130°52'0 0.0
2017-Dec-07 01:30N 33°54' E 130°52'0 0.1
2017-Dec-07 01:00N 33°54' E 130°52'0 0.0
2017-Dec-07 00:30N 33°54' E 130°52'0 0.1
2017-Dec-07 00:00N 33°54' E 130°52'0 0.0
2017-Dec-06 23:30N 33°54' E 130°52'0 0.1
2017-Dec-06 23:00N 33°54' E 130°52'0 0.0
2017-Dec-06 22:30N 33°54' E 130°52'0 0.0
2017-Dec-06 22:00N 33°54' E 130°52'0 0.1
2017-Dec-06 21:30N 33°54' E 130°52'0 0.0
2017-Dec-06 21:00N 33°54' E 130°52'  
2017-Dec-04 00:50N 34°34' E 138°34'610.1
2017-Dec-04 00:11N 34°34' E 138°42'610.5
2017-Dec-03 23:39N 34°35' E 138°49'210.7
2017-Dec-03 23:27N 34°35' E 138°52'4 9.9
2017-Dec-03 23:00N 34°36' E 138°57'511.0
2017-Dec-03 22:30N 34°39' E 139°02'810.2
2017-Dec-03 21:41N 34°44' E 139°10'2 8.9
2017-Dec-03 21:30N 34°45' E 139°12'41 9.8
2017-Dec-03 17:18N 34°55' E 140°01'510.5
2017-Dec-03 16:48N 34°58' E 140°06'396 9.8
2017-Dec-02 00:19N 41°29' E 141°30'511.5
2017-Dec-01 23:54N 41°33' E 141°28'511.1
2017-Dec-01 23:30N 41°37' E 141°26'510.3
2017-Dec-01 22:59N 41°42' E 141°23'  

Dump ship's entire track history